createdAt,value
2018-06-25T00:02:20.729Z,8.97
2018-06-25T00:04:54.501Z,8.63
2018-06-25T00:07:28.387Z,7.63
2018-06-25T00:10:02.204Z,7.67
2018-06-25T00:12:35.993Z,7.93
2018-06-25T00:15:09.911Z,8.67
2018-06-25T00:17:43.694Z,8.67
2018-06-25T00:20:17.389Z,9.00
2018-06-25T00:22:51.154Z,8.10
2018-06-25T00:25:25.419Z,9.33
2018-06-25T00:27:59.794Z,8.40
2018-06-25T00:30:33.564Z,8.37
2018-06-25T00:33:07.383Z,7.90
2018-06-25T00:35:41.102Z,6.80
2018-06-25T00:38:14.854Z,6.33
2018-06-25T00:40:48.914Z,6.80
2018-06-25T00:43:22.613Z,5.63
2018-06-25T00:45:56.384Z,5.20
2018-06-25T00:48:30.161Z,4.87
2018-06-25T00:51:03.981Z,4.67
2018-06-25T00:53:37.919Z,4.63
2018-06-25T00:56:11.774Z,4.70
2018-06-25T00:59:06.770Z,5.10
2018-06-25T01:01:40.433Z,5.07
2018-06-25T01:04:14.301Z,4.87
2018-06-25T01:06:48.070Z,4.73
2018-06-25T01:09:21.934Z,5.23
2018-06-25T01:11:55.705Z,5.57
2018-06-25T01:14:29.532Z,5.63
2018-06-25T01:17:03.302Z,6.07
2018-06-25T01:19:37.123Z,6.83
2018-06-25T01:22:12.034Z,6.83
2018-06-25T01:24:45.865Z,7.70
2018-06-25T01:27:19.737Z,7.47
2018-06-25T01:29:53.549Z,8.20
2018-06-25T01:32:27.380Z,7.30
2018-06-25T01:35:01.079Z,8.57
2018-06-25T01:37:35.020Z,8.97
2018-06-25T01:40:08.860Z,9.87
2018-06-25T01:42:42.842Z,9.90
2018-06-25T01:45:16.616Z,9.80
2018-06-25T01:47:50.465Z,10.60
2018-06-25T01:50:24.202Z,10.43
2018-06-25T01:52:58.080Z,9.80
2018-06-25T01:55:31.909Z,10.53
2018-06-25T01:58:05.885Z,10.07
2018-06-25T02:00:39.833Z,9.47
2018-06-25T02:03:13.689Z,10.33
2018-06-25T02:05:47.506Z,10.23
2018-06-25T02:08:21.393Z,9.50
2018-06-25T02:10:55.205Z,10.57
2018-06-25T02:13:29.078Z,9.57
2018-06-25T02:16:02.921Z,9.53
2018-06-25T02:18:36.747Z,9.60
2018-06-25T02:21:10.522Z,9.60
2018-06-25T02:23:44.400Z,8.33
2018-06-25T02:26:18.222Z,8.60
2018-06-25T02:28:52.148Z,8.47
2018-06-25T02:31:25.968Z,8.23
2018-06-25T02:33:59.969Z,8.70
2018-06-25T02:36:33.788Z,9.17
2018-06-25T02:39:11.769Z,9.63
2018-06-25T02:41:45.562Z,9.57
2018-06-25T02:44:19.334Z,9.20
2018-06-25T02:46:53.074Z,9.33
2018-06-25T02:49:26.851Z,9.13
2018-06-25T02:52:00.670Z,8.60
2018-06-25T02:54:34.432Z,8.43
2018-06-25T02:57:08.266Z,7.63
2018-06-25T02:59:42.089Z,8.73
2018-06-25T03:02:15.851Z,8.00
2018-06-25T03:04:49.584Z,8.13
2018-06-25T03:07:23.358Z,7.73
2018-06-25T03:09:57.146Z,7.30
2018-06-25T03:12:30.924Z,7.70
2018-06-25T03:15:04.798Z,6.10
2018-06-25T03:17:38.532Z,6.90
2018-06-25T03:20:12.517Z,6.60
2018-06-25T03:22:46.433Z,6.30
2018-06-25T03:25:20.217Z,6.00
2018-06-25T03:27:53.971Z,6.93
2018-06-25T03:30:27.726Z,6.47
2018-06-25T03:33:01.490Z,7.03
2018-06-25T03:35:35.271Z,7.43
2018-06-25T03:38:09.301Z,7.20
2018-06-25T03:40:43.160Z,7.27
2018-06-25T03:43:16.945Z,7.07
2018-06-25T03:45:50.710Z,8.27
2018-06-25T03:48:24.449Z,7.80
2018-06-25T03:50:58.244Z,7.87
2018-06-25T03:53:32.007Z,7.83
2018-06-25T03:56:05.768Z,7.33
2018-06-25T03:58:39.876Z,7.57
2018-06-25T04:01:13.615Z,6.60
2018-06-25T04:03:47.421Z,7.80
2018-06-25T04:06:21.207Z,6.67
2018-06-25T04:08:54.998Z,6.73
2018-06-25T04:11:28.724Z,6.37
2018-06-25T04:14:02.470Z,5.60
2018-06-25T04:16:36.277Z,6.53
2018-06-25T04:19:10.001Z,5.50
2018-06-25T04:21:43.753Z,5.57
2018-06-25T04:24:17.645Z,5.20
2018-06-25T04:26:51.420Z,4.63
2018-06-25T04:29:25.184Z,5.27
2018-06-25T04:31:57.605Z,5.50
2018-06-25T04:34:29.963Z,5.37
2018-06-25T04:37:02.317Z,5.07
2018-06-25T04:39:34.777Z,5.87
2018-06-25T04:42:07.341Z,4.87
2018-06-25T04:44:39.750Z,5.47
2018-06-25T04:47:12.121Z,5.70
2018-06-25T04:49:44.642Z,5.47
2018-06-25T04:52:17.033Z,5.43
2018-06-25T04:54:49.418Z,5.30
2018-06-25T04:57:21.776Z,5.37
2018-06-25T04:59:54.532Z,5.27
2018-06-25T05:02:26.912Z,6.33
2018-06-25T05:04:59.305Z,5.53
2018-06-25T05:07:31.688Z,5.77
2018-06-25T05:10:04.143Z,5.40
2018-06-25T05:12:36.582Z,5.50
2018-06-25T05:15:08.974Z,5.23
2018-06-25T05:17:41.380Z,5.13
2018-06-25T05:20:13.827Z,5.60
2018-06-25T05:22:46.147Z,6.00
2018-06-25T05:25:18.541Z,6.07
2018-06-25T05:27:50.933Z,5.13
2018-06-25T05:30:23.397Z,5.03
2018-06-25T05:32:55.799Z,5.37
2018-06-25T05:35:28.234Z,7.23
2018-06-25T05:38:00.579Z,6.60
2018-06-25T05:40:33.038Z,6.37
2018-06-25T05:43:05.437Z,5.97
2018-06-25T05:45:37.860Z,6.20
2018-06-25T05:48:10.268Z,6.70
2018-06-25T05:50:42.688Z,6.37
2018-06-25T05:53:15.059Z,7.20
2018-06-25T05:55:47.531Z,6.80
2018-06-25T05:58:19.945Z,7.17
2018-06-25T06:00:52.356Z,7.53
2018-06-25T06:03:24.802Z,7.67
2018-06-25T06:05:57.226Z,7.93
2018-06-25T06:08:29.637Z,7.50
2018-06-25T06:11:02.035Z,8.03
2018-06-25T06:13:34.411Z,6.07
2018-06-25T06:16:06.856Z,6.80
2018-06-25T06:18:39.214Z,7.23
2018-06-25T06:21:11.617Z,6.83
2018-06-25T06:23:44.002Z,6.50
2018-06-25T06:26:16.402Z,7.50
2018-06-25T06:28:48.777Z,7.10
2018-06-25T06:31:21.187Z,8.73
2018-06-25T06:33:53.560Z,8.37
2018-06-25T06:36:26.040Z,8.83
2018-06-25T06:38:58.389Z,9.17
2018-06-25T06:41:30.788Z,9.27
2018-06-25T06:44:03.185Z,10.40
2018-06-25T06:46:35.673Z,10.83
2018-06-25T06:49:08.057Z,11.27
2018-06-25T06:51:40.502Z,11.03
2018-06-25T06:54:12.892Z,12.03
2018-06-25T06:56:45.363Z,12.10
2018-06-25T06:59:17.825Z,11.60
2018-06-25T07:01:49.843Z,10.87
2018-06-25T07:04:22.099Z,9.87
2018-06-25T07:06:54.528Z,9.70
2018-06-25T07:09:26.996Z,10.33
2018-06-25T07:11:59.468Z,9.53
2018-06-25T07:14:32.258Z,10.03
2018-06-25T07:17:04.974Z,9.57
2018-06-25T07:19:38.203Z,9.93
2018-06-25T07:22:10.730Z,10.47
2018-06-25T07:24:43.408Z,10.60
2018-06-25T07:27:15.872Z,11.30
2018-06-25T07:29:48.294Z,13.07
2018-06-25T07:32:20.753Z,13.27
2018-06-25T07:34:53.130Z,14.33
2018-06-25T07:37:25.553Z,13.27
2018-06-25T07:39:57.944Z,14.93
2018-06-25T07:42:30.368Z,13.80
2018-06-25T07:45:02.846Z,11.73
2018-06-25T07:47:35.332Z,10.60
2018-06-25T07:50:07.766Z,11.30
2018-06-25T07:52:49.353Z,10.67
2018-06-25T07:55:37.239Z,9.40
2018-06-25T07:58:10.530Z,9.53
2018-06-25T08:00:56.591Z,9.93
2018-06-25T08:03:43.261Z,9.70
2018-06-25T08:06:29.156Z,9.53
2018-06-25T08:09:16.943Z,8.70
2018-06-25T08:11:57.251Z,7.80
2018-06-25T08:14:41.545Z,6.63
2018-06-25T08:17:25.357Z,6.23
2018-06-25T08:20:14.073Z,7.60
2018-06-25T08:23:01.772Z,6.97
2018-06-25T08:25:37.674Z,6.37
2018-06-25T08:28:11.677Z,7.07
2018-06-25T08:30:45.145Z,6.63
2018-06-25T08:33:20.516Z,6.87
2018-06-25T08:35:55.392Z,7.00
2018-06-25T08:38:29.030Z,7.27
2018-06-25T08:41:03.415Z,7.17
2018-06-25T08:43:37.930Z,6.47
2018-06-25T08:46:12.975Z,6.50
2018-06-25T08:48:48.223Z,5.87
2018-06-25T08:51:22.266Z,6.07
2018-06-25T08:53:57.659Z,6.00
2018-06-25T08:56:31.557Z,6.60
2018-06-25T08:59:06.166Z,6.17
2018-06-25T09:01:41.675Z,6.43
2018-06-25T09:04:16.863Z,6.90
2018-06-25T09:06:51.562Z,6.17
2018-06-25T09:09:26.776Z,6.10
2018-06-25T09:12:01.568Z,5.67
2018-06-25T09:14:41.598Z,5.83
2018-06-25T09:17:17.068Z,6.17
2018-06-25T09:19:57.500Z,5.77
2018-06-25T09:22:33.497Z,7.10
2018-06-25T09:25:07.336Z,6.83
2018-06-25T09:27:46.784Z,6.67
2018-06-25T09:30:21.820Z,9.60
2018-06-25T09:32:56.535Z,10.00
2018-06-25T09:35:31.718Z,10.80
2018-06-25T09:38:06.188Z,12.67
2018-06-25T09:40:41.488Z,13.60
2018-06-25T09:43:16.282Z,12.90
2018-06-25T09:45:50.635Z,13.10
2018-06-25T09:48:24.804Z,12.90
2018-06-25T09:51:00.477Z,12.47
2018-06-25T09:53:35.108Z,12.00
2018-06-25T09:56:10.804Z,10.80
2018-06-25T09:58:47.310Z,10.97
2018-06-25T10:01:22.297Z,9.90
2018-06-25T10:03:59.750Z,9.30
2018-06-25T10:06:36.044Z,8.97
2018-06-25T10:09:16.115Z,9.60
2018-06-25T10:11:53.309Z,9.97
2018-06-25T10:14:31.260Z,9.87
2018-06-25T10:17:12.145Z,9.33
2018-06-25T10:19:49.452Z,7.60
2018-06-25T10:22:25.594Z,7.80
2018-06-25T10:25:00.299Z,8.33
2018-06-25T10:27:35.943Z,8.80
2018-06-25T10:30:12.147Z,8.27
2018-06-25T10:32:46.608Z,7.83
2018-06-25T10:35:21.151Z,7.13
2018-06-25T10:37:54.927Z,7.43
2018-06-25T10:40:31.932Z,7.07
2018-06-25T10:43:06.556Z,7.33
2018-06-25T10:45:41.633Z,7.90
2018-06-25T10:48:16.603Z,7.17
2018-06-25T10:50:51.890Z,7.13
2018-06-25T10:53:26.513Z,6.97
2018-06-25T10:56:01.749Z,6.80
2018-06-25T10:58:36.365Z,6.77
2018-06-25T11:01:10.293Z,7.60
2018-06-25T11:03:47.213Z,7.37
2018-06-25T11:06:21.309Z,7.13
2018-06-25T11:08:55.978Z,7.10
2018-06-25T11:11:29.744Z,7.50
2018-06-25T11:14:04.449Z,7.10
2018-06-25T11:16:38.388Z,7.23
2018-06-25T11:19:11.977Z,6.03
2018-06-25T11:21:45.437Z,7.17
2018-06-25T11:24:18.373Z,8.93
2018-06-25T11:26:51.619Z,9.03
2018-06-25T11:29:24.356Z,8.70
2018-06-25T11:31:56.736Z,7.67
2018-06-25T11:34:29.169Z,6.83
2018-06-25T11:37:01.558Z,7.03
2018-06-25T11:39:33.974Z,7.80
2018-06-25T11:42:06.666Z,7.13
2018-06-25T11:44:39.078Z,6.73
2018-06-25T11:47:11.444Z,7.27
2018-06-25T11:49:43.885Z,6.33
2018-06-25T11:52:16.280Z,6.97
2018-06-25T11:54:48.703Z,7.93
2018-06-25T11:57:21.688Z,7.53
2018-06-25T11:59:54.256Z,6.87
2018-06-25T12:02:27.278Z,6.47
2018-06-25T12:05:00.091Z,6.80
2018-06-25T12:07:33.683Z,6.93
2018-06-25T12:10:06.477Z,7.07
2018-06-25T12:12:39.389Z,7.03
2018-06-25T12:15:12.040Z,6.83
2018-06-25T12:17:44.513Z,7.97
2018-06-25T12:20:16.978Z,8.70
2018-06-25T12:22:49.342Z,9.07
2018-06-25T12:25:21.726Z,7.83
2018-06-25T12:27:54.134Z,8.03
2018-06-25T12:30:26.501Z,8.20
2018-06-25T12:32:58.885Z,9.20
2018-06-25T12:35:31.248Z,8.70
2018-06-25T12:38:03.713Z,8.73
2018-06-25T12:40:36.064Z,8.60
2018-06-25T12:43:08.542Z,6.10
2018-06-25T12:45:40.925Z,5.90
2018-06-25T12:48:12.956Z,6.73
2018-06-25T12:50:45.210Z,8.57
2018-06-25T12:53:17.586Z,7.10
2018-06-25T12:55:50.102Z,6.83
2018-06-25T12:58:22.534Z,7.30
2018-06-25T13:00:54.949Z,7.03
2018-06-25T13:03:27.299Z,7.03
2018-06-25T13:05:59.737Z,7.50
2018-06-25T13:08:32.161Z,7.03
2018-06-25T13:11:04.598Z,6.43
2018-06-25T13:13:37.036Z,6.67
2018-06-25T13:16:09.489Z,7.07
2018-06-25T13:18:41.860Z,6.57
2018-06-25T13:21:14.283Z,7.10
2018-06-25T13:23:46.702Z,7.63
2018-06-25T13:26:20.064Z,7.63
2018-06-25T13:28:52.506Z,8.10
2018-06-25T13:31:25.003Z,7.40
2018-06-25T13:33:57.404Z,7.03
2018-06-25T13:36:29.841Z,7.93
2018-06-25T13:39:02.259Z,7.03
2018-06-25T13:41:34.714Z,7.00
2018-06-25T13:44:07.262Z,6.77
2018-06-25T13:46:39.712Z,6.50
2018-06-25T13:49:12.574Z,6.37
2018-06-25T13:51:45.090Z,6.60
2018-06-25T13:54:17.697Z,6.30
2018-06-25T13:56:50.152Z,5.90
2018-06-25T13:59:22.572Z,5.40
2018-06-25T14:01:55.194Z,5.60
2018-06-25T14:04:27.644Z,5.80
2018-06-25T14:07:00.141Z,5.37
2018-06-25T14:09:33.323Z,5.47
2018-06-25T14:12:05.918Z,5.43
2018-06-25T14:14:41.060Z,5.23
2018-06-25T14:17:14.461Z,5.23
2018-06-25T14:19:47.007Z,5.10
2018-06-25T14:22:19.530Z,5.50
2018-06-25T14:24:55.884Z,5.20
2018-06-25T14:27:28.763Z,5.30
2018-06-25T14:30:01.358Z,5.00
2018-06-25T14:32:33.817Z,5.13
2018-06-25T14:35:20.554Z,5.07
2018-06-25T14:37:52.953Z,5.73
2018-06-25T14:40:25.403Z,5.50
2018-06-25T14:42:57.854Z,5.33
2018-06-25T14:45:30.320Z,5.30
2018-06-25T14:48:02.806Z,4.73
2018-06-25T14:50:36.151Z,4.77
2018-06-25T14:53:08.574Z,4.90
2018-06-25T14:55:41.316Z,5.63
2018-06-25T14:58:13.701Z,5.40
2018-06-25T15:00:46.049Z,5.83
2018-06-25T15:03:18.441Z,5.30
2018-06-25T15:05:50.900Z,5.67
2018-06-25T15:08:23.343Z,5.30
2018-06-25T15:10:55.727Z,5.80
2018-06-25T15:13:28.862Z,4.33
2018-06-25T15:16:01.249Z,4.50
2018-06-25T15:18:33.617Z,4.57
2018-06-25T15:21:06.528Z,4.70
2018-06-25T15:23:39.253Z,4.57
2018-06-25T15:26:11.693Z,4.30
2018-06-25T15:28:44.172Z,4.63
2018-06-25T15:31:16.583Z,5.70
2018-06-25T15:33:49.015Z,5.50
2018-06-25T15:36:21.413Z,5.70
2018-06-25T15:38:53.905Z,6.40
2018-06-25T15:41:26.314Z,5.50
2018-06-25T15:44:00.308Z,4.80
2018-06-25T15:46:33.054Z,5.30
2018-06-25T15:49:05.493Z,4.93
2018-06-25T15:51:37.941Z,5.27
2018-06-25T15:54:10.361Z,5.03
2018-06-25T15:56:42.793Z,4.90
2018-06-25T15:59:15.180Z,5.20
2018-06-25T16:01:47.592Z,4.10
2018-06-25T16:04:20.001Z,4.20
2018-06-25T16:06:54.755Z,4.03
2018-06-25T16:09:27.703Z,3.70
2018-06-25T16:12:00.093Z,3.80
2018-06-25T16:14:32.502Z,3.33
2018-06-25T16:17:04.836Z,4.10
2018-06-25T16:19:37.266Z,3.87
2018-06-25T16:22:09.647Z,4.43
2018-06-25T16:24:42.063Z,4.50
2018-06-25T16:27:14.519Z,6.17
2018-06-25T16:29:47.021Z,7.37
2018-06-25T16:32:19.441Z,6.00
2018-06-25T16:34:51.954Z,6.53
2018-06-25T16:37:24.372Z,6.60
2018-06-25T16:39:56.932Z,5.90
2018-06-25T16:42:29.451Z,6.43
2018-06-25T16:45:01.932Z,6.53
2018-06-25T16:47:34.428Z,5.63
2018-06-25T16:50:07.603Z,5.83
2018-06-25T16:52:40.042Z,6.03
2018-06-25T16:55:12.540Z,6.13
2018-06-25T16:57:44.993Z,6.60
2018-06-25T17:00:17.457Z,6.63
2018-06-25T17:02:49.871Z,7.87
2018-06-25T17:05:22.521Z,7.77
2018-06-25T17:07:54.991Z,7.60
2018-06-25T17:10:27.472Z,7.43
2018-06-25T17:12:59.940Z,7.37
2018-06-25T17:15:32.434Z,6.93
2018-06-25T17:18:04.868Z,7.17
2018-06-25T17:20:37.342Z,7.80
2018-06-25T17:23:09.740Z,7.63
2018-06-25T17:25:42.220Z,8.53
2018-06-25T17:28:14.654Z,8.80
2018-06-25T17:30:47.170Z,8.30
2018-06-25T17:33:19.668Z,9.03
2018-06-25T17:35:52.054Z,8.20
2018-06-25T17:38:24.436Z,8.60
2018-06-25T17:40:56.872Z,8.87
2018-06-25T17:43:29.385Z,8.40
2018-06-25T17:46:01.864Z,8.27
2018-06-25T17:48:34.340Z,8.70
2018-06-25T17:51:07.250Z,8.97
2018-06-25T17:53:39.644Z,8.63
2018-06-25T17:56:12.194Z,9.17
2018-06-25T17:58:44.632Z,9.33
2018-06-25T18:01:17.406Z,8.90
2018-06-25T18:03:50.071Z,8.73
2018-06-25T18:06:22.540Z,9.20
2018-06-25T18:08:58.195Z,9.77
2018-06-25T18:11:30.910Z,8.47
2018-06-25T18:14:03.599Z,8.60
2018-06-25T18:16:36.373Z,7.97
2018-06-25T18:19:08.863Z,8.60
2018-06-25T18:21:41.379Z,9.50
2018-06-25T18:24:13.868Z,9.30
2018-06-25T18:26:50.053Z,9.20
2018-06-25T18:29:22.474Z,9.23
2018-06-25T18:31:55.035Z,9.20
2018-06-25T18:34:27.452Z,9.20
2018-06-25T18:36:59.897Z,8.30
2018-06-25T18:39:32.318Z,8.03
2018-06-25T18:42:04.781Z,8.00
2018-06-25T18:44:37.218Z,7.20
2018-06-25T18:47:09.738Z,7.13
2018-06-25T18:49:42.143Z,7.43
2018-06-25T18:52:14.658Z,7.20
2018-06-25T18:54:47.120Z,7.40
2018-06-25T18:57:19.741Z,7.93
2018-06-25T18:59:52.352Z,8.90
2018-06-25T19:02:24.802Z,8.03
2018-06-25T19:04:57.233Z,8.43
2018-06-25T19:07:29.722Z,8.27
2018-06-25T19:10:02.174Z,8.87
2018-06-25T19:12:34.578Z,8.63
2018-06-25T19:15:07.569Z,9.10
2018-06-25T19:17:40.092Z,8.90
2018-06-25T19:20:12.489Z,9.70
2018-06-25T19:22:44.859Z,8.90
2018-06-25T19:25:17.279Z,10.13
2018-06-25T19:27:49.675Z,9.03
2018-06-25T19:30:22.116Z,8.17
2018-06-25T19:32:54.592Z,9.40
2018-06-25T19:35:27.073Z,9.87
2018-06-25T19:37:59.508Z,10.77
2018-06-25T19:40:31.991Z,10.83
2018-06-25T19:43:04.370Z,10.73
2018-06-25T19:45:36.825Z,11.03
2018-06-25T19:48:09.384Z,11.53
2018-06-25T19:50:41.765Z,10.70
2018-06-25T19:53:14.229Z,10.67
2018-06-25T19:55:46.662Z,11.43
2018-06-25T19:58:19.132Z,12.33
2018-06-25T20:00:51.531Z,11.60
2018-06-25T20:03:24.016Z,11.67
2018-06-25T20:05:56.457Z,10.97
2018-06-25T20:08:28.920Z,11.80
2018-06-25T20:11:01.492Z,12.67
2018-06-25T20:13:37.191Z,11.60
2018-06-25T20:16:10.327Z,12.07
2018-06-25T20:18:42.845Z,12.17
2018-06-25T20:21:15.872Z,12.33
2018-06-25T20:23:48.477Z,12.63
2018-06-25T20:26:21.153Z,11.50
2018-06-25T20:28:53.849Z,12.53
2018-06-25T20:31:26.883Z,13.97
2018-06-25T20:34:02.998Z,13.83
2018-06-25T20:36:35.776Z,12.73
2018-06-25T20:39:12.384Z,12.63
2018-06-25T20:41:44.908Z,13.10
2018-06-25T20:44:17.666Z,13.53
2018-06-25T20:46:50.114Z,13.00
2018-06-25T20:49:23.233Z,12.80
2018-06-25T20:51:55.648Z,12.73
2018-06-25T20:54:28.691Z,12.70
2018-06-25T20:57:01.280Z,12.30
2018-06-25T20:59:34.822Z,12.67
2018-06-25T21:02:09.928Z,13.87
2018-06-25T21:04:45.098Z,11.53
2018-06-25T21:07:20.602Z,10.40
2018-06-25T21:09:55.889Z,9.30
2018-06-25T21:12:29.902Z,8.87
2018-06-25T21:15:07.252Z,9.60
2018-06-25T21:17:44.899Z,9.80
2018-06-25T21:20:21.709Z,10.07
2018-06-25T21:22:55.751Z,10.20
2018-06-25T21:25:31.464Z,10.53
2018-06-25T21:28:05.756Z,10.60
2018-06-25T21:30:39.641Z,10.50
2018-06-25T21:33:14.745Z,11.25
2018-06-25T21:35:48.882Z,9.77
2018-06-25T21:38:24.871Z,10.17
2018-06-25T21:41:00.813Z,11.23
2018-06-25T21:43:35.757Z,11.43
2018-06-25T21:46:11.718Z,10.47
2018-06-25T21:48:46.756Z,10.47
2018-06-25T21:51:22.024Z,11.60
2018-06-25T21:53:55.892Z,11.27
2018-06-25T21:56:29.754Z,10.63
2018-06-25T21:59:03.582Z,10.10
2018-06-25T22:01:37.566Z,9.77
2018-06-25T22:04:11.333Z,9.47
2018-06-25T22:06:45.149Z,9.20
2018-06-25T22:09:18.937Z,8.77
2018-06-25T22:11:52.758Z,8.63
2018-06-25T22:14:26.784Z,8.30
2018-06-25T22:17:00.580Z,7.97
2018-06-25T22:19:34.347Z,8.37
2018-06-25T22:22:08.343Z,8.50
2018-06-25T22:24:42.029Z,8.57
2018-06-25T22:27:15.902Z,9.00
2018-06-25T22:29:49.785Z,8.80
2018-06-25T22:32:23.733Z,9.17
2018-06-25T22:34:57.561Z,9.23
2018-06-25T22:37:31.344Z,8.93
2018-06-25T22:40:05.109Z,9.93
2018-06-25T22:42:38.929Z,9.10
2018-06-25T22:45:12.669Z,9.97
2018-06-25T22:47:46.487Z,10.10
2018-06-25T22:50:20.167Z,9.50
2018-06-25T22:52:53.987Z,9.80
2018-06-25T22:55:36.182Z,9.27
2018-06-25T22:58:09.989Z,9.00
2018-06-25T23:00:43.820Z,9.27
2018-06-25T23:03:17.725Z,8.87
2018-06-25T23:05:51.462Z,8.20
2018-06-25T23:08:25.319Z,7.73
2018-06-25T23:10:59.108Z,7.83
2018-06-25T23:13:32.920Z,8.03
2018-06-25T23:16:06.824Z,7.40
2018-06-25T23:18:40.534Z,7.33
2018-06-25T23:21:14.295Z,6.90
2018-06-25T23:23:48.080Z,6.90
2018-06-25T23:26:21.842Z,7.27
2018-06-25T23:28:55.541Z,7.37
2018-06-25T23:31:29.366Z,7.40
2018-06-25T23:34:03.145Z,6.80
2018-06-25T23:36:36.918Z,6.90
2018-06-25T23:39:13.855Z,6.40
2018-06-25T23:41:47.713Z,6.97
2018-06-25T23:44:21.523Z,6.33
2018-06-25T23:46:55.663Z,6.50
2018-06-25T23:49:29.490Z,6.67
2018-06-25T23:52:03.284Z,6.77
2018-06-25T23:54:37.059Z,6.27
2018-06-25T23:57:10.772Z,6.97
2018-06-25T23:59:44.591Z,6.73
